sensor_id;sensor_type;location;lat;lon;timestamp;pressure;altitude;pressure_sealevel;temperature
76583;BMP280;65462;52.148;7.940;2023-01-19T00:01:25;99116.50;;;0.84
76583;BMP280;65462;52.148;7.940;2023-01-19T00:03:50;99112.59;;;0.87
76583;BMP280;65462;52.148;7.940;2023-01-19T00:06:16;99123.25;;;0.85
76583;BMP280;65462;52.148;7.940;2023-01-19T00:08:42;99132.88;;;0.85
76583;BMP280;65462;52.148;7.940;2023-01-19T00:11:10;99126.16;;;0.84
76583;BMP280;65462;52.148;7.940;2023-01-19T00:13:35;99123.81;;;0.82
76583;BMP280;65462;52.148;7.940;2023-01-19T00:16:01;99135.78;;;0.83
76583;BMP280;65462;52.148;7.940;2023-01-19T00:18:26;99131.34;;;0.84
76583;BMP280;65462;52.148;7.940;2023-01-19T00:20:51;99146.94;;;0.84
76583;BMP280;65462;52.148;7.940;2023-01-19T00:23:16;99124.59;;;0.83
76583;BMP280;65462;52.148;7.940;2023-01-19T00:25:42;99133.44;;;0.82
76583;BMP280;65462;52.148;7.940;2023-01-19T00:28:13;99132.66;;;0.81
76583;BMP280;65462;52.148;7.940;2023-01-19T00:30:39;99131.34;;;0.84
76583;BMP280;65462;52.148;7.940;2023-01-19T00:33:05;99141.44;;;0.85
76583;BMP280;65462;52.148;7.940;2023-01-19T00:35:30;99136.25;;;0.85
76583;BMP280;65462;52.148;7.940;2023-01-19T00:37:58;99140.41;;;0.86
76583;BMP280;65462;52.148;7.940;2023-01-19T00:40:24;99146.63;;;0.85
76583;BMP280;65462;52.148;7.940;2023-01-19T00:42:49;99144.81;;;0.86
76583;BMP280;65462;52.148;7.940;2023-01-19T00:45:17;99145.78;;;0.90
76583;BMP280;65462;52.148;7.940;2023-01-19T00:47:43;99137.81;;;0.86
76583;BMP280;65462;52.148;7.940;2023-01-19T00:50:09;99143.97;;;0.90
76583;BMP280;65462;52.148;7.940;2023-01-19T00:52:39;99148.66;;;0.88
76583;BMP280;65462;52.148;7.940;2023-01-19T00:55:06;99137.13;;;0.94
76583;BMP280;65462;52.148;7.940;2023-01-19T00:57:31;99134.53;;;0.94
76583;BMP280;65462;52.148;7.940;2023-01-19T00:59:56;99141.00;;;0.97
76583;BMP280;65462;52.148;7.940;2023-01-19T01:02:22;99138.88;;;0.99
76583;BMP280;65462;52.148;7.940;2023-01-19T01:04:47;99137.06;;;0.99
76583;BMP280;65462;52.148;7.940;2023-01-19T01:07:12;99140.91;;;1.02
76583;BMP280;65462;52.148;7.940;2023-01-19T01:09:38;99129.16;;;1.04
76583;BMP280;65462;52.148;7.940;2023-01-19T01:12:03;99142.47;;;1.03
76583;BMP280;65462;52.148;7.940;2023-01-19T01:14:29;99139.84;;;1.03
76583;BMP280;65462;52.148;7.940;2023-01-19T01:16:54;99144.56;;;1.01
76583;BMP280;65462;52.148;7.940;2023-01-19T01:19:19;99131.00;;;1.04
76583;BMP280;65462;52.148;7.940;2023-01-19T01:21:45;99134.25;;;0.96
76583;BMP280;65462;52.148;7.940;2023-01-19T01:24:10;99148.91;;;1.05
76583;BMP280;65462;52.148;7.940;2023-01-19T01:26:35;99143.72;;;1.05
76583;BMP280;65462;52.148;7.940;2023-01-19T01:29:01;99147.56;;;1.08
76583;BMP280;65462;52.148;7.940;2023-01-19T01:31:26;99146.31;;;1.05
76583;BMP280;65462;52.148;7.940;2023-01-19T01:33:52;99152.47;;;1.10
76583;BMP280;65462;52.148;7.940;2023-01-19T01:36:17;99146.00;;;1.07
76583;BMP280;65462;52.148;7.940;2023-01-19T01:38:45;99157.09;;;1.13
76583;BMP280;65462;52.148;7.940;2023-01-19T01:41:11;99154.72;;;1.16
76583;BMP280;65462;52.148;7.940;2023-01-19T01:44:02;99146.91;;;1.16
76583;BMP280;65462;52.148;7.940;2023-01-19T01:46:32;99144.13;;;1.13
76583;BMP280;65462;52.148;7.940;2023-01-19T01:49:08;99148.16;;;1.19
76583;BMP280;65462;52.148;7.940;2023-01-19T01:52:00;99150.19;;;1.22
76583;BMP280;65462;52.148;7.940;2023-01-19T01:54:28;99152.59;;;1.18
76583;BMP280;65462;52.148;7.940;2023-01-19T01:56:59;99148.16;;;1.19
76583;BMP280;65462;52.148;7.940;2023-01-19T01:59:30;99146.63;;;1.18
76583;BMP280;65462;52.148;7.940;2023-01-19T02:02:16;99150.75;;;1.19
76583;BMP280;65462;52.148;7.940;2023-01-19T02:05:07;99143.94;;;1.23
76583;BMP280;65462;52.148;7.940;2023-01-19T02:07:45;99146.25;;;1.24
76583;BMP280;65462;52.148;7.940;2023-01-19T02:10:30;99133.81;;;1.21
76583;BMP280;65462;52.148;7.940;2023-01-19T02:13:15;99134.59;;;1.22
76583;BMP280;65462;52.148;7.940;2023-01-19T02:15:44;99132.19;;;1.25
76583;BMP280;65462;52.148;7.940;2023-01-19T02:18:10;99140.25;;;1.24
76583;BMP280;65462;52.148;7.940;2023-01-19T02:20:36;99145.00;;;1.22
76583;BMP280;65462;52.148;7.940;2023-01-19T02:23:04;99132.47;;;1.24
76583;BMP280;65462;52.148;7.940;2023-01-19T02:25:31;99139.22;;;1.25
76583;BMP280;65462;52.148;7.940;2023-01-19T02:27:57;99128.25;;;1.28
76583;BMP280;65462;52.148;7.940;2023-01-19T02:30:23;99135.56;;;1.26
76583;BMP280;65462;52.148;7.940;2023-01-19T02:32:48;99138.16;;;1.26
76583;BMP280;65462;52.148;7.940;2023-01-19T02:35:14;99135.25;;;1.27
76583;BMP280;65462;52.148;7.940;2023-01-19T02:37:40;99137.00;;;1.32
76583;BMP280;65462;52.148;7.940;2023-01-19T02:40:11;99140.06;;;1.34
76583;BMP280;65462;52.148;7.940;2023-01-19T02:42:41;99143.13;;;1.36
76583;BMP280;65462;52.148;7.940;2023-01-19T02:45:08;99134.28;;;1.37
76583;BMP280;65462;52.148;7.940;2023-01-19T02:47:43;99139.00;;;1.35
76583;BMP280;65462;52.148;7.940;2023-01-19T02:53:20;99130.63;;;1.38
76583;BMP280;65462;52.148;7.940;2023-01-19T02:59:03;99127.66;;;1.31
76583;BMP280;65462;52.148;7.940;2023-01-19T03:01:59;99127.53;;;1.36
76583;BMP280;65462;52.148;7.940;2023-01-19T03:04:40;99131.66;;;1.37
76583;BMP280;65462;52.148;7.940;2023-01-19T03:07:26;99117.31;;;1.39
76583;BMP280;65462;52.148;7.940;2023-01-19T03:12:46;99124.84;;;1.41
76583;BMP280;65462;52.148;7.940;2023-01-19T03:15:19;99129.00;;;1.42
76583;BMP280;65462;52.148;7.940;2023-01-19T03:17:47;99116.56;;;1.39
76583;BMP280;65462;52.148;7.940;2023-01-19T03:20:15;99124.66;;;1.37
76583;BMP280;65462;52.148;7.940;2023-01-19T03:22:43;99117.13;;;1.36
76583;BMP280;65462;52.148;7.940;2023-01-19T03:25:10;99111.44;;;1.34
76583;BMP280;65462;52.148;7.940;2023-01-19T03:27:37;99111.38;;;1.39
76583;BMP280;65462;52.148;7.940;2023-01-19T03:30:09;99119.25;;;1.34
76583;BMP280;65462;52.148;7.940;2023-01-19T03:32:41;99118.19;;;1.35
76583;BMP280;65462;52.148;7.940;2023-01-19T03:35:11;99116.66;;;1.34
76583;BMP280;65462;52.148;7.940;2023-01-19T03:37:39;99115.28;;;1.36
76583;BMP280;65462;52.148;7.940;2023-01-19T03:40:08;99118.19;;;1.35
76583;BMP280;65462;52.148;7.940;2023-01-19T03:42:34;99124.91;;;1.36
76583;BMP280;65462;52.148;7.940;2023-01-19T03:45:01;99119.72;;;1.36
76583;BMP280;65462;52.148;7.940;2023-01-19T03:47:27;99121.28;;;1.37
76583;BMP280;65462;52.148;7.940;2023-01-19T03:49:53;99104.44;;;1.34
76583;BMP280;65462;52.148;7.940;2023-01-19T03:52:27;99113.47;;;1.37
76583;BMP280;65462;52.148;7.940;2023-01-19T03:54:53;99116.56;;;1.39
76583;BMP280;65462;52.148;7.940;2023-01-19T03:57:18;99114.72;;;1.39
76583;BMP280;65462;52.148;7.940;2023-01-19T03:59:43;99123.28;;;1.40
76583;BMP280;65462;52.148;7.940;2023-01-19T04:02:08;99112.88;;;1.40
76583;BMP280;65462;52.148;7.940;2023-01-19T04:04:34;99121.19;;;1.42
76583;BMP280;65462;52.148;7.940;2023-01-19T04:06:59;99124.25;;;1.44
76583;BMP280;65462;52.148;7.940;2023-01-19T04:09:25;99123.28;;;1.40
76583;BMP280;65462;52.148;7.940;2023-01-19T04:11:51;99114.63;;;1.44
76583;BMP280;65462;52.148;7.940;2023-01-19T04:14:17;99117.50;;;1.43
76583;BMP280;65462;52.148;7.940;2023-01-19T04:16:42;99112.63;;;1.41
76583;BMP280;65462;52.148;7.940;2023-01-19T04:19:07;99127.13;;;1.42
76583;BMP280;65462;52.148;7.940;2023-01-19T04:21:32;99110.78;;;1.42
76583;BMP280;65462;52.148;7.940;2023-01-19T04:23:58;99115.69;;;1.43
76583;BMP280;65462;52.148;7.940;2023-01-19T04:26:23;99119.06;;;1.44
76583;BMP280;65462;52.148;7.940;2023-01-19T04:28:48;99114.34;;;1.46
76583;BMP280;65462;52.148;7.940;2023-01-19T04:31:14;99116.66;;;1.47
76583;BMP280;65462;52.148;7.940;2023-01-19T04:33:39;99109.63;;;1.48
76583;BMP280;65462;52.148;7.940;2023-01-19T04:36:04;99111.44;;;1.47
76583;BMP280;65462;52.148;7.940;2023-01-19T04:38:30;99097.69;;;1.47
76583;BMP280;65462;52.148;7.940;2023-01-19T04:40:55;99103.34;;;1.49
76583;BMP280;65462;52.148;7.940;2023-01-19T04:43:21;99108.28;;;1.50
76583;BMP280;65462;52.148;7.940;2023-01-19T04:45:47;99095.84;;;1.47
76583;BMP280;65462;52.148;7.940;2023-01-19T04:48:13;99100.00;;;1.48
76583;BMP280;65462;52.148;7.940;2023-01-19T04:50:38;99102.41;;;1.45
76583;BMP280;65462;52.148;7.940;2023-01-19T04:53:04;99104.69;;;1.46
76583;BMP280;65462;52.148;7.940;2023-01-19T04:55:29;99104.44;;;1.48
76583;BMP280;65462;52.148;7.940;2023-01-19T04:57:55;99100.75;;;1.49
76583;BMP280;65462;52.148;7.940;2023-01-19T05:00:20;99100.75;;;1.49
76583;BMP280;65462;52.148;7.940;2023-01-19T05:02:46;99098.66;;;1.51
76583;BMP280;65462;52.148;7.940;2023-01-19T05:05:11;99096.50;;;1.53
76583;BMP280;65462;52.148;7.940;2023-01-19T05:07:37;99094.22;;;1.51
76583;BMP280;65462;52.148;7.940;2023-01-19T05:10:03;99103.53;;;1.52
76583;BMP280;65462;52.148;7.940;2023-01-19T05:12:28;99100.94;;;1.52
76583;BMP280;65462;52.148;7.940;2023-01-19T05:14:54;99103.84;;;1.51
76583;BMP280;65462;52.148;7.940;2023-01-19T05:17:19;99105.28;;;1.57
76583;BMP280;65462;52.148;7.940;2023-01-19T05:19:44;99104.22;;;1.58
76583;BMP280;65462;52.148;7.940;2023-01-19T05:22:09;99097.09;;;1.50
76583;BMP280;65462;52.148;7.940;2023-01-19T05:24:35;99104.31;;;1.53
76583;BMP280;65462;52.148;7.940;2023-01-19T05:27:00;99094.22;;;1.51
76583;BMP280;65462;52.148;7.940;2023-01-19T05:29:26;99098.66;;;1.51
76583;BMP280;65462;52.148;7.940;2023-01-19T05:31:51;99113.38;;;1.55
76583;BMP280;65462;52.148;7.940;2023-01-19T05:34:17;99108.47;;;1.54
76583;BMP280;65462;52.148;7.940;2023-01-19T05:36:42;99094.97;;;1.52
76583;BMP280;65462;52.148;7.940;2023-01-19T05:39:07;99104.44;;;1.48
76583;BMP280;65462;52.148;7.940;2023-01-19T05:41:33;99112.13;;;1.53
76583;BMP280;65462;52.148;7.940;2023-01-19T05:43:58;99104.69;;;1.60
76583;BMP280;65462;52.148;7.940;2023-01-19T05:46:23;99106.53;;;1.59
76583;BMP280;65462;52.148;7.940;2023-01-19T05:48:49;99100.09;;;1.57
76583;BMP280;65462;52.148;7.940;2023-01-19T05:51:15;99103.84;;;1.51
76583;BMP280;65462;52.148;7.940;2023-01-19T05:53:40;99122.13;;;1.46
76583;BMP280;65462;52.148;7.940;2023-01-19T05:56:07;99100.59;;;1.45
76583;BMP280;65462;52.148;7.940;2023-01-19T05:58:33;99100.09;;;1.43
76583;BMP280;65462;52.148;7.940;2023-01-19T06:01:07;99101.31;;;1.46
76583;BMP280;65462;52.148;7.940;2023-01-19T06:03:33;99104.31;;;1.53
76583;BMP280;65462;52.148;7.940;2023-01-19T06:05:59;99105.38;;;1.52
76583;BMP280;65462;52.148;7.940;2023-01-19T06:08:25;99096.91;;;1.46
76583;BMP280;65462;52.148;7.940;2023-01-19T06:10:50;99109.13;;;1.46
76583;BMP280;65462;52.148;7.940;2023-01-19T06:13:16;99101.31;;;1.46
76583;BMP280;65462;52.148;7.940;2023-01-19T06:15:42;99094.69;;;1.40
76583;BMP280;65462;52.148;7.940;2023-01-19T06:18:09;99103.38;;;1.35
76583;BMP280;65462;52.148;7.940;2023-01-19T06:20:34;99096.94;;;1.33
76583;BMP280;65462;52.148;7.940;2023-01-19T06:23:00;99106.59;;;1.32
76583;BMP280;65462;52.148;7.940;2023-01-19T06:25:26;99107.63;;;1.31
76583;BMP280;65462;52.148;7.940;2023-01-19T06:27:51;99116.97;;;1.32
76583;BMP280;65462;52.148;7.940;2023-01-19T06:30:16;99116.66;;;1.34
76583;BMP280;65462;52.148;7.940;2023-01-19T06:32:42;99118.31;;;1.30
76583;BMP280;65462;52.148;7.940;2023-01-19T06:35:07;99114.66;;;1.31
76583;BMP280;65462;52.148;7.940;2023-01-19T06:37:34;99119.09;;;1.30
76583;BMP280;65462;52.148;7.940;2023-01-19T06:39:59;99112.38;;;1.29
76583;BMP280;65462;52.148;7.940;2023-01-19T06:42:24;99132.84;;;1.31
76583;BMP280;65462;52.148;7.940;2023-01-19T06:44:49;99113.09;;;1.30
76583;BMP280;65462;52.148;7.940;2023-01-19T06:47:15;99128.72;;;1.30
76583;BMP280;65462;52.148;7.940;2023-01-19T06:49:40;99140.66;;;1.31
76583;BMP280;65462;52.148;7.940;2023-01-19T06:52:08;99135.47;;;1.31
76583;BMP280;65462;52.148;7.940;2023-01-19T06:54:33;99138.84;;;1.31
76583;BMP280;65462;52.148;7.940;2023-01-19T06:56:58;99143.06;;;1.27
76583;BMP280;65462;52.148;7.940;2023-01-19T06:59:23;99143.84;;;1.28
76583;BMP280;65462;52.148;7.940;2023-01-19T07:01:49;99147.00;;;1.25
76583;BMP280;65462;52.148;7.940;2023-01-19T07:04:15;99152.22;;;1.25
76583;BMP280;65462;52.148;7.940;2023-01-19T07:06:40;99155.84;;;1.24
76583;BMP280;65462;52.148;7.940;2023-01-19T07:09:06;99152.00;;;1.21
76583;BMP280;65462;52.148;7.940;2023-01-19T07:11:34;99158.47;;;1.24
76583;BMP280;65462;52.148;7.940;2023-01-19T07:13:59;99157.41;;;1.25
76583;BMP280;65462;52.148;7.940;2023-01-19T07:16:25;99166.84;;;1.21
76583;BMP280;65462;52.148;7.940;2023-01-19T07:18:50;99173.59;;;1.22
76583;BMP280;65462;52.148;7.940;2023-01-19T07:21:16;99181.84;;;1.24
76583;BMP280;65462;52.148;7.940;2023-01-19T07:23:41;99183.41;;;1.25
76583;BMP280;65462;52.148;7.940;2023-01-19T07:26:08;99177.44;;;1.24
76583;BMP280;65462;52.148;7.940;2023-01-19T07:28:34;99178.41;;;1.28
76583;BMP280;65462;52.148;7.940;2023-01-19T07:31:01;99186.69;;;1.30
76583;BMP280;65462;52.148;7.940;2023-01-19T07:33:26;99182.84;;;1.28
76583;BMP280;65462;52.148;7.940;2023-01-19T07:35:52;99193.81;;;1.25
76583;BMP280;65462;52.148;7.940;2023-01-19T07:38:18;99190.16;;;1.26
76583;BMP280;65462;52.148;7.940;2023-01-19T07:40:44;99201.31;;;1.26
76583;BMP280;65462;52.148;7.940;2023-01-19T07:43:11;99197.19;;;1.25
76583;BMP280;65462;52.148;7.940;2023-01-19T07:45:36;99201.03;;;1.28
76583;BMP280;65462;52.148;7.940;2023-01-19T07:48:02;99204.13;;;1.30
76583;BMP280;65462;52.148;7.940;2023-01-19T07:50:27;99213.47;;;1.31
76583;BMP280;65462;52.148;7.940;2023-01-19T07:52:54;99214.81;;;1.28
76583;BMP280;65462;52.148;7.940;2023-01-19T07:55:20;99219.72;;;1.30
76583;BMP280;65462;52.148;7.940;2023-01-19T07:57:49;99224.91;;;1.30
76583;BMP280;65462;52.148;7.940;2023-01-19T08:00:19;99223.25;;;1.34
76583;BMP280;65462;52.148;7.940;2023-01-19T08:02:46;99235.50;;;1.33
76583;BMP280;65462;52.148;7.940;2023-01-19T08:05:15;99242.53;;;1.33
76583;BMP280;65462;52.148;7.940;2023-01-19T08:07:40;99247.75;;;1.33
76583;BMP280;65462;52.148;7.940;2023-01-19T08:10:06;99256.03;;;1.35
76583;BMP280;65462;52.148;7.940;2023-01-19T08:12:31;99250.63;;;1.31
76583;BMP280;65462;52.148;7.940;2023-01-19T08:14:56;99264.28;;;1.37
76583;BMP280;65462;52.148;7.940;2023-01-19T08:17:21;99267.94;;;1.36
76583;BMP280;65462;52.148;7.940;2023-01-19T08:19:47;99272.88;;;1.37
76583;BMP280;65462;52.148;7.940;2023-01-19T08:22:12;99270.06;;;1.34
76583;BMP280;65462;52.148;7.940;2023-01-19T08:24:37;99279.13;;;1.36
76583;BMP280;65462;52.148;7.940;2023-01-19T08:27:03;99286.94;;;1.36
76583;BMP280;65462;52.148;7.940;2023-01-19T08:29:28;99295.22;;;1.38
76583;BMP280;65462;52.148;7.940;2023-01-19T08:31:57;99291.34;;;1.36
76583;BMP280;65462;52.148;7.940;2023-01-19T08:34:24;99300.69;;;1.37
76583;BMP280;65462;52.148;7.940;2023-01-19T08:36:49;99291.66;;;1.34
76583;BMP280;65462;52.148;7.940;2023-01-19T08:39:15;99296.84;;;1.34
76583;BMP280;65462;52.148;7.940;2023-01-19T08:41:42;99302.34;;;1.33
76583;BMP280;65462;52.148;7.940;2023-01-19T08:44:07;99309.66;;;1.31
76583;BMP280;65462;52.148;7.940;2023-01-19T08:46:33;99315.81;;;1.35
76583;BMP280;65462;52.148;7.940;2023-01-19T08:48:58;99316.88;;;1.34
76583;BMP280;65462;52.148;7.940;2023-01-19T08:51:23;99325.75;;;1.33
76583;BMP280;65462;52.148;7.940;2023-01-19T08:53:48;99327.28;;;1.34
76583;BMP280;65462;52.148;7.940;2023-01-19T08:56:14;99330.88;;;1.38
76583;BMP280;65462;52.148;7.940;2023-01-19T08:58:41;99334.25;;;1.38
76583;BMP280;65462;52.148;7.940;2023-01-19T09:01:07;99330.94;;;1.33
76583;BMP280;65462;52.148;7.940;2023-01-19T09:03:34;99335.28;;;1.37
76583;BMP280;65462;52.148;7.940;2023-01-19T09:06:00;99335.50;;;1.41
76583;BMP280;65462;52.148;7.940;2023-01-19T09:08:25;99345.59;;;1.42
76583;BMP280;65462;52.148;7.940;2023-01-19T09:10:51;99351.88;;;1.41
76583;BMP280;65462;52.148;7.940;2023-01-19T09:13:17;99361.50;;;1.41
76583;BMP280;65462;52.148;7.940;2023-01-19T09:15:43;99357.28;;;1.45
76583;BMP280;65462;52.148;7.940;2023-01-19T09:18:11;99360.38;;;1.47
76583;BMP280;65462;52.148;7.940;2023-01-19T09:20:41;99362.75;;;1.43
76583;BMP280;65462;52.148;7.940;2023-01-19T09:23:10;99361.41;;;1.46
76583;BMP280;65462;52.148;7.940;2023-01-19T09:25:41;99373.38;;;1.47
76583;BMP280;65462;52.148;7.940;2023-01-19T09:28:08;99378.56;;;1.47
76583;BMP280;65462;52.148;7.940;2023-01-19T09:30:38;99378.56;;;1.47
76583;BMP280;65462;52.148;7.940;2023-01-19T09:33:05;99381.66;;;1.49
76583;BMP280;65462;52.148;7.940;2023-01-19T09:35:34;99387.94;;;1.48
76583;BMP280;65462;52.148;7.940;2023-01-19T09:38:00;99387.84;;;1.53
76583;BMP280;65462;52.148;7.940;2023-01-19T09:40:26;99395.44;;;1.49
76583;BMP280;65462;52.148;7.940;2023-01-19T09:42:59;99400.38;;;1.51
76583;BMP280;65462;52.148;7.940;2023-01-19T09:47:54;99406.34;;;1.51
76583;BMP280;65462;52.148;7.940;2023-01-19T09:50:27;99410.22;;;1.54
76583;BMP280;65462;52.148;7.940;2023-01-19T09:52:57;99416.19;;;1.54
76583;BMP280;65462;52.148;7.940;2023-01-19T09:55:28;99429.97;;;1.55
76583;BMP280;65462;52.148;7.940;2023-01-19T09:57:54;99422.44;;;1.53
76583;BMP280;65462;52.148;7.940;2023-01-19T10:00:20;99426.31;;;1.56
76583;BMP280;65462;52.148;7.940;2023-01-19T10:02:52;99431.22;;;1.57
76583;BMP280;65462;52.148;7.940;2023-01-19T10:05:46;99442.41;;;1.58
76583;BMP280;65462;52.148;7.940;2023-01-19T10:08:29;99445.78;;;1.58
76583;BMP280;65462;52.148;7.940;2023-01-19T10:10:57;99445.50;;;1.60
76583;BMP280;65462;52.148;7.940;2023-01-19T10:13:38;99448.88;;;1.60
76583;BMP280;65462;52.148;7.940;2023-01-19T10:18:48;99463.94;;;1.63
76583;BMP280;65462;52.148;7.940;2023-01-19T10:21:36;99470.97;;;1.63
76583;BMP280;65462;52.148;7.940;2023-01-19T10:26:43;99471.72;;;1.63
76583;BMP280;65462;52.148;7.940;2023-01-19T10:29:33;99475.25;;;1.73
76583;BMP280;65462;52.148;7.940;2023-01-19T10:32:35;99466.19;;;1.70
76583;BMP280;65462;52.148;7.940;2023-01-19T10:35:15;99474.19;;;1.74
76583;BMP280;65462;52.148;7.940;2023-01-19T10:37:50;99466.59;;;1.77
76583;BMP280;65462;52.148;7.940;2023-01-19T10:40:29;99471.81;;;1.77
76583;BMP280;65462;52.148;7.940;2023-01-19T10:42:56;99473.06;;;1.80
76583;BMP280;65462;52.148;7.940;2023-01-19T10:45:25;99477.97;;;1.81
76583;BMP280;65462;52.148;7.940;2023-01-19T10:47:52;99480.56;;;1.81
76583;BMP280;65462;52.148;7.940;2023-01-19T10:50:31;99482.59;;;1.84
76583;BMP280;65462;52.148;7.940;2023-01-19T10:52:59;99481.09;;;1.83
76583;BMP280;65462;52.148;7.940;2023-01-19T10:57:50;99486.69;;;1.90
76583;BMP280;65462;52.148;7.940;2023-01-19T11:00:40;99493.16;;;1.93
76583;BMP280;65462;52.148;7.940;2023-01-19T11:03:28;99487.94;;;1.93
76583;BMP280;65462;52.148;7.940;2023-01-19T11:08:43;99505.13;;;1.94
76583;BMP280;65462;52.148;7.940;2023-01-19T11:11:09;99503.25;;;1.94
76583;BMP280;65462;52.148;7.940;2023-01-19T11:13:37;99503.56;;;1.93
76583;BMP280;65462;52.148;7.940;2023-01-19T11:18:34;99500.66;;;1.94
76583;BMP280;65462;52.148;7.940;2023-01-19T11:21:11;99504.81;;;1.95
76583;BMP280;65462;52.148;7.940;2023-01-19T11:23:44;99508.47;;;1.94
76583;BMP280;65462;52.148;7.940;2023-01-19T11:26:23;99508.69;;;1.98
76583;BMP280;65462;52.148;7.940;2023-01-19T11:28:49;99507.84;;;2.02
76583;BMP280;65462;52.148;7.940;2023-01-19T11:31:20;99496.38;;;2.03
76583;BMP280;65462;52.148;7.940;2023-01-19T11:34:00;99503.13;;;2.04
76583;BMP280;65462;52.148;7.940;2023-01-19T11:39:14;99501.50;;;2.08
76583;BMP280;65462;52.148;7.940;2023-01-19T11:41:48;99492.53;;;2.14
76583;BMP280;65462;52.148;7.940;2023-01-19T11:44:33;99495.63;;;2.16
76583;BMP280;65462;52.148;7.940;2023-01-19T11:47:01;99496.63;;;2.21
76583;BMP280;65462;52.148;7.940;2023-01-19T11:49:41;99493.94;;;2.26
76583;BMP280;65462;52.148;7.940;2023-01-19T11:52:27;99495.06;;;2.33
76583;BMP280;65462;52.148;7.940;2023-01-19T11:55:04;99492.41;;;2.38
76583;BMP280;65462;52.148;7.940;2023-01-19T11:57:31;99493.00;;;2.49
76583;BMP280;65462;52.148;7.940;2023-01-19T11:59:56;99494.84;;;2.62
76583;BMP280;65462;52.148;7.940;2023-01-19T12:02:30;99497.34;;;2.67
76583;BMP280;65462;52.148;7.940;2023-01-19T12:05:04;99493.59;;;2.73
76583;BMP280;65462;52.148;7.940;2023-01-19T12:07:33;99496.59;;;2.80
76583;BMP280;65462;52.148;7.940;2023-01-19T12:12:42;99501.41;;;3.00
76583;BMP280;65462;52.148;7.940;2023-01-19T12:17:48;99495.16;;;3.23
76583;BMP280;65462;52.148;7.940;2023-01-19T12:25:34;99504.34;;;3.35
76583;BMP280;65462;52.148;7.940;2023-01-19T12:28:08;99494.88;;;3.39
76583;BMP280;65462;52.148;7.940;2023-01-19T12:30:36;99505.31;;;3.39
76583;BMP280;65462;52.148;7.940;2023-01-19T12:36:00;99503.66;;;3.43
76583;BMP280;65462;52.148;7.940;2023-01-19T12:38:46;99510.88;;;3.46
76583;BMP280;65462;52.148;7.940;2023-01-19T12:41:32;99514.34;;;3.55
76583;BMP280;65462;52.148;7.940;2023-01-19T12:46:36;99519.84;;;3.67
76583;BMP280;65462;52.148;7.940;2023-01-19T12:49:20;99515.41;;;3.76
76583;BMP280;65462;52.148;7.940;2023-01-19T12:51:48;99515.03;;;3.82
76583;BMP280;65462;52.148;7.940;2023-01-19T12:56:57;99518.47;;;3.92
76583;BMP280;65462;52.148;7.940;2023-01-19T12:59:25;99522.28;;;3.94
76583;BMP280;65462;52.148;7.940;2023-01-19T13:26:34;99549.19;;;4.39
76583;BMP280;65462;52.148;7.940;2023-01-19T13:29:18;99546.25;;;4.40
76583;BMP280;65462;52.148;7.940;2023-01-19T13:31:46;99559.31;;;4.40
76583;BMP280;65462;52.148;7.940;2023-01-19T13:34:24;99558.84;;;4.38
76583;BMP280;65462;52.148;7.940;2023-01-19T13:36:52;99556.84;;;4.35
76583;BMP280;65462;52.148;7.940;2023-01-19T13:39:30;99567.00;;;4.37
76583;BMP280;65462;52.148;7.940;2023-01-19T13:41:59;99569.44;;;4.33
76583;BMP280;65462;52.148;7.940;2023-01-19T13:44:32;99572.84;;;4.34
76583;BMP280;65462;52.148;7.940;2023-01-19T13:47:02;99572.06;;;4.33
76583;BMP280;65462;52.148;7.940;2023-01-19T13:49:30;99573.63;;;4.34
76583;BMP280;65462;52.148;7.940;2023-01-19T13:52:05;99579.97;;;4.42
76583;BMP280;65462;52.148;7.940;2023-01-19T13:54:31;99582.75;;;4.45
76583;BMP280;65462;52.148;7.940;2023-01-19T13:56:56;99583.22;;;4.47
76583;BMP280;65462;52.148;7.940;2023-01-19T13:59:21;99589.63;;;4.41
76583;BMP280;65462;52.148;7.940;2023-01-19T14:01:47;99595.94;;;4.40
76583;BMP280;65462;52.148;7.940;2023-01-19T14:04:33;99597.75;;;4.40
76583;BMP280;65462;52.148;7.940;2023-01-19T14:07:01;99597.56;;;4.36
76583;BMP280;65462;52.148;7.940;2023-01-19T14:09:27;99600.19;;;4.36
76583;BMP280;65462;52.148;7.940;2023-01-19T14:12:12;99605.91;;;4.38
76583;BMP280;65462;52.148;7.940;2023-01-19T14:14:39;99613.63;;;4.43
76583;BMP280;65462;52.148;7.940;2023-01-19T14:17:18;99614.13;;;4.45
76583;BMP280;65462;52.148;7.940;2023-01-19T14:19:49;99624.44;;;4.51
76583;BMP280;65462;52.148;7.940;2023-01-19T14:22:14;99625.81;;;4.48
76583;BMP280;65462;52.148;7.940;2023-01-19T14:24:40;99635.38;;;4.53
76583;BMP280;65462;52.148;7.940;2023-01-19T14:27:08;99629.69;;;4.51
76583;BMP280;65462;52.148;7.940;2023-01-19T14:29:35;99631.06;;;4.48
76583;BMP280;65462;52.148;7.940;2023-01-19T14:34:32;99636.28;;;4.48
76583;BMP280;65462;52.148;7.940;2023-01-19T14:36:58;99635.31;;;4.44
76583;BMP280;65462;52.148;7.940;2023-01-19T14:39:27;99638.81;;;4.39
76583;BMP280;65462;52.148;7.940;2023-01-19T14:41:56;99637.41;;;4.33
76583;BMP280;65462;52.148;7.940;2023-01-19T14:44:36;99645.06;;;4.30
76583;BMP280;65462;52.148;7.940;2023-01-19T14:47:03;99632.31;;;4.28
76583;BMP280;65462;52.148;7.940;2023-01-19T14:49:38;99640.91;;;4.29
76583;BMP280;65462;52.148;7.940;2023-01-19T14:52:16;99644.88;;;4.26
76583;BMP280;65462;52.148;7.940;2023-01-19T14:54:45;99642.84;;;4.23
76583;BMP280;65462;52.148;7.940;2023-01-19T14:57:13;99641.31;;;4.22
76583;BMP280;65462;52.148;7.940;2023-01-19T14:59:40;99652.06;;;4.21
76583;BMP280;65462;52.148;7.940;2023-01-19T15:02:06;99651.88;;;4.17
76583;BMP280;65462;52.148;7.940;2023-01-19T15:04:32;99658.78;;;4.13
76583;BMP280;65462;52.148;7.940;2023-01-19T15:06:57;99665.09;;;4.12
76583;BMP280;65462;52.148;7.940;2023-01-19T15:09:23;99665.16;;;4.07
76583;BMP280;65462;52.148;7.940;2023-01-19T15:11:49;99670.38;;;4.07
76583;BMP280;65462;52.148;7.940;2023-01-19T15:14:15;99670.50;;;4.02
76583;BMP280;65462;52.148;7.940;2023-01-19T15:16:41;99678.63;;;4.01
76583;BMP280;65462;52.148;7.940;2023-01-19T15:19:16;99677.69;;;3.97
76583;BMP280;65462;52.148;7.940;2023-01-19T15:21:42;99675.50;;;3.90
76583;BMP280;65462;52.148;7.940;2023-01-19T15:24:11;99682.25;;;3.91
76583;BMP280;65462;52.148;7.940;2023-01-19T15:26:38;99692.31;;;3.84
76583;BMP280;65462;52.148;7.940;2023-01-19T15:29:15;99686.59;;;3.82
76583;BMP280;65462;52.148;7.940;2023-01-19T15:31:40;99693.00;;;3.76
76583;BMP280;65462;52.148;7.940;2023-01-19T15:34:10;99694.34;;;3.73
76583;BMP280;65462;52.148;7.940;2023-01-19T15:36:36;99698.00;;;3.72
76583;BMP280;65462;52.148;7.940;2023-01-19T15:39:01;99701.59;;;3.63
76583;BMP280;65462;52.148;7.940;2023-01-19T15:41:27;99701.91;;;3.61
76583;BMP280;65462;52.148;7.940;2023-01-19T15:43:55;99704.31;;;3.58